Aeroporto :







RITROVATECI SU...

 
LOGIN :

Iscrizione | Disclaimer

   EN    FR    IT 

 









Sommario :    VFR   VFR Marginale   IFR   IFR Intensivo   IFR Molto Intensivo
Visibilità : 
Base nubi : 
>= 8 km
>= 3000ft
5 / 8 km
1000 / 3000 ft
1500m / 5 km
500 / 1000 ft
800 / 1500m
200 / 500 ft
< 800m
< 200 ft
Simboli :   Temporali  Nebbia  Neve Forte  Precipitazioni Forti  Vento > 20 kt






- Altitudine del aeroporto : 244 ft
- Codice IATA : YQB


CYQB - Quebec - Jean Lesage Int.

ULTIMO METAR :
  • 070048Z 24009KT 1 1/4SM -SN VV015 M06/M08 A2999 RMK SN8 SLP163

METARs OBSOLETI :
  • 070045Z 24010KT 2 1/2SM -SN BKN015 OVC025 M06/M08 A2999 RMK SC7SC1 SLP162
  • 070000Z 24008KT 10SM -SN FEW015 SCT020 BKN045 OVC100 M06/M09 A2999 RMK SC2SC1SC4AC1 SLP161
  • 062300Z 23006KT 15SM -SN FEW014 FEW020 SCT040 BKN094 M05/M08 A2997 RMK SC2SC1SC2AC3 SC TR SLP156
  • 062200Z 22010KT 15SM -SHSN FEW020 SCT043 BKN078 M05/M08 A2996 RMK SC1SC4AC3 SC TR CVCTV CLD EMBD SLP152

TAF AMD TAF CYQB
Valido dal 07 a 00 ore il 08 a 00 ore UTC


070033Z 0700/0724 23006KT 11/2SM -SN OVC015
TEMPO 0700/0704 6SM -SN SCT015 BKN040
FM070400 26006KT P6SM FEW020 SCT040
TEMPO 0704/0706 4SM -SN BKN020 OVC040
FM072100 24010KT P6SM BKN025 RMK NXT FCST BY 070600Z
ATIS : ENG : +1 418-871-6893 FRA : +1 418-871-6895



MetMap, La meteo Aeronautica in un colpo d'occhio ! - Copyright ORBIFLY Dicembre 2007 - Disclaimer

ORBIFLY MET'MAP TEAM :

Programmazione e sviluppo : Alexandra Zaïnal
Concezione : Baudouin d'Aumeries
Aiuto per la programmazione : Marc-Olivier Méhu
Supporto tecnico e logistico : Manuel Goepfert
Aiuto per la traduzione : Arnaldo La Scala

Contatto : metmap@orbifly.com




FONTI E CREDITI :

   NOAA